sensor_id;sensor_type;location;lat;lon;timestamp;pressure;altitude;pressure_sealevel;temperature;humidity
36222;BME280;22266;52.340;4.962;2023-01-27T00:00:36;102606.19;;;5.78;78.76
36222;BME280;22266;52.340;4.962;2023-01-27T00:03:03;102603.03;;;5.73;79.43
36222;BME280;22266;52.340;4.962;2023-01-27T00:05:29;102605.69;;;5.73;79.43
36222;BME280;22266;52.340;4.962;2023-01-27T00:07:56;102606.69;;;5.72;78.72
36222;BME280;22266;52.340;4.962;2023-01-27T00:10:24;102602.28;;;5.71;79.03
36222;BME280;22266;52.340;4.962;2023-01-27T00:12:50;102600.81;;;5.67;78.54
36222;BME280;22266;52.340;4.962;2023-01-27T00:15:35;102599.88;;;5.68;79.62
36222;BME280;22266;52.340;4.962;2023-01-27T00:18:01;102606.91;;;5.69;79.27
36222;BME280;22266;52.340;4.962;2023-01-27T00:20:28;102613.31;;;5.66;79.44
36222;BME280;22266;52.340;4.962;2023-01-27T00:23:21;102606.66;;;5.61;77.91
36222;BME280;22266;52.340;4.962;2023-01-27T00:26:09;102604.22;;;5.58;78.87
36222;BME280;22266;52.340;4.962;2023-01-27T00:28:40;102614.88;;;5.58;79.40
36222;BME280;22266;52.340;4.962;2023-01-27T00:31:08;102618.66;;;5.55;78.71
36222;BME280;22266;52.340;4.962;2023-01-27T00:33:55;102612.81;;;5.50;78.77
36222;BME280;22266;52.340;4.962;2023-01-27T00:36:28;102612.72;;;5.52;79.13
36222;BME280;22266;52.340;4.962;2023-01-27T00:38:55;102613.66;;;5.51;79.10
36222;BME280;22266;52.340;4.962;2023-01-27T00:41:22;102617.66;;;5.45;78.75
36222;BME280;22266;52.340;4.962;2023-01-27T00:43:51;102621.41;;;5.42;78.94
36222;BME280;22266;52.340;4.962;2023-01-27T00:46:20;102618.84;;;5.41;79.29
36222;BME280;22266;52.340;4.962;2023-01-27T00:48:47;102611.91;;;5.38;78.57
36222;BME280;22266;52.340;4.962;2023-01-27T00:51:13;102618.47;;;5.34;79.07
36222;BME280;22266;52.340;4.962;2023-01-27T00:53:40;102622.59;;;5.27;78.84
36222;BME280;22266;52.340;4.962;2023-01-27T00:56:07;102627.81;;;5.29;78.29
36222;BME280;22266;52.340;4.962;2023-01-27T00:58:34;102624.28;;;5.28;79.08
36222;BME280;22266;52.340;4.962;2023-01-27T01:01:03;102624.78;;;5.33;78.50
36222;BME280;22266;52.340;4.962;2023-01-27T01:03:32;102630.13;;;5.33;77.70
36222;BME280;22266;52.340;4.962;2023-01-27T01:06:00;102635.09;;;5.27;77.84
36222;BME280;22266;52.340;4.962;2023-01-27T01:08:29;102620.28;;;5.23;78.24
36222;BME280;22266;52.340;4.962;2023-01-27T01:10:56;102623.78;;;5.23;77.88
36222;BME280;22266;52.340;4.962;2023-01-27T01:13:23;102629.84;;;5.25;77.37
36222;BME280;22266;52.340;4.962;2023-01-27T01:15:49;102632.50;;;5.25;78.56
36222;BME280;22266;52.340;4.962;2023-01-27T01:18:16;102630.59;;;5.27;77.91
36222;BME280;22266;52.340;4.962;2023-01-27T01:20:44;102643.19;;;5.25;77.75
36222;BME280;22266;52.340;4.962;2023-01-27T01:23:11;102637.84;;;5.25;78.53
36222;BME280;22266;52.340;4.962;2023-01-27T01:25:38;102644.88;;;5.26;77.97
36222;BME280;22266;52.340;4.962;2023-01-27T01:28:05;102628.78;;;5.28;77.37
36222;BME280;22266;52.340;4.962;2023-01-27T01:30:34;102634.13;;;5.28;78.10
36222;BME280;22266;52.340;4.962;2023-01-27T01:33:00;102630.31;;;5.19;77.26
36222;BME280;22266;52.340;4.962;2023-01-27T01:35:28;102635.66;;;5.19;77.78
36222;BME280;22266;52.340;4.962;2023-01-27T01:37:54;102633.22;;;5.16;77.40
36222;BME280;22266;52.340;4.962;2023-01-27T01:40:21;102641.84;;;5.19;77.64
36222;BME280;22266;52.340;4.962;2023-01-27T01:42:56;102640.75;;;5.22;77.31
36222;BME280;22266;52.340;4.962;2023-01-27T01:48:12;102637.94;;;5.12;76.54
36222;BME280;22266;52.340;4.962;2023-01-27T01:50:41;102639.97;;;5.09;76.89
36222;BME280;22266;52.340;4.962;2023-01-27T01:53:10;102634.22;;;5.02;77.32
36222;BME280;22266;52.340;4.962;2023-01-27T01:55:38;102650.03;;;5.05;77.30
36222;BME280;22266;52.340;4.962;2023-01-27T01:58:07;102648.81;;;5.09;77.36
36222;BME280;22266;52.340;4.962;2023-01-27T02:00:35;102654.78;;;5.13;78.11
36222;BME280;22266;52.340;4.962;2023-01-27T02:03:02;102654.28;;;5.08;76.64
36222;BME280;22266;52.340;4.962;2023-01-27T02:05:32;102659.97;;;5.03;76.39
36222;BME280;22266;52.340;4.962;2023-01-27T02:08:08;102653.25;;;4.97;77.74
36222;BME280;22266;52.340;4.962;2023-01-27T02:10:37;102659.69;;;4.95;77.18
36222;BME280;22266;52.340;4.962;2023-01-27T02:13:03;102648.25;;;4.93;77.13
36222;BME280;22266;52.340;4.962;2023-01-27T02:15:30;102660.25;;;4.87;77.30
36222;BME280;22266;52.340;4.962;2023-01-27T02:17:58;102656.81;;;4.85;77.79
36222;BME280;22266;52.340;4.962;2023-01-27T02:20:45;102666.31;;;4.89;77.85
36222;BME280;22266;52.340;4.962;2023-01-27T02:23:52;102669.09;;;4.88;77.56
36222;BME280;22266;52.340;4.962;2023-01-27T02:26:27;102663.13;;;4.84;77.90
36222;BME280;22266;52.340;4.962;2023-01-27T02:28:58;102669.66;;;4.80;77.88
36222;BME280;22266;52.340;4.962;2023-01-27T02:31:25;102672.88;;;4.72;77.23
36222;BME280;22266;52.340;4.962;2023-01-27T02:33:57;102663.31;;;4.70;77.65
36222;BME280;22266;52.340;4.962;2023-01-27T02:36:26;102673.63;;;4.75;77.86
36222;BME280;22266;52.340;4.962;2023-01-27T02:38:57;102670.97;;;4.75;77.49
36222;BME280;22266;52.340;4.962;2023-01-27T02:41:33;102671.91;;;4.74;77.22
36222;BME280;22266;52.340;4.962;2023-01-27T02:44:00;102674.81;;;4.70;77.42
36222;BME280;22266;52.340;4.962;2023-01-27T02:46:27;102679.31;;;4.70;77.53
36222;BME280;22266;52.340;4.962;2023-01-27T02:48:54;102679.91;;;4.74;78.06
36222;BME280;22266;52.340;4.962;2023-01-27T02:51:21;102679.31;;;4.70;78.07
36222;BME280;22266;52.340;4.962;2023-01-27T02:53:47;102679.72;;;4.64;78.10
36222;BME280;22266;52.340;4.962;2023-01-27T02:56:14;102679.94;;;4.61;78.58
36222;BME280;22266;52.340;4.962;2023-01-27T02:58:42;102675.25;;;4.64;78.59
36222;BME280;22266;52.340;4.962;2023-01-27T03:01:17;102682.28;;;4.65;78.77
36222;BME280;22266;52.340;4.962;2023-01-27T03:03:44;102687.84;;;4.62;78.32
36222;BME280;22266;52.340;4.962;2023-01-27T03:06:16;102685.72;;;4.55;78.56
36222;BME280;22266;52.340;4.962;2023-01-27T03:08:43;102693.75;;;4.55;79.84
36222;BME280;22266;52.340;4.962;2023-01-27T03:11:11;102689.66;;;4.49;78.36
36222;BME280;22266;52.340;4.962;2023-01-27T03:13:38;102693.44;;;4.46;79.28
36222;BME280;22266;52.340;4.962;2023-01-27T03:16:05;102697.28;;;4.42;79.12
36222;BME280;22266;52.340;4.962;2023-01-27T03:18:52;102683.31;;;4.39;79.44
36222;BME280;22266;52.340;4.962;2023-01-27T03:21:21;102687.34;;;4.32;78.91
36222;BME280;22266;52.340;4.962;2023-01-27T03:23:48;102689.91;;;4.33;79.88
36222;BME280;22266;52.340;4.962;2023-01-27T03:26:19;102692.28;;;4.38;80.63
36222;BME280;22266;52.340;4.962;2023-01-27T03:28:50;102696.44;;;4.42;79.95
36222;BME280;22266;52.340;4.962;2023-01-27T03:31:40;102702.94;;;4.38;79.63
36222;BME280;22266;52.340;4.962;2023-01-27T03:34:08;102690.13;;;4.30;78.59
36222;BME280;22266;52.340;4.962;2023-01-27T03:36:40;102698.13;;;4.30;78.89
36222;BME280;22266;52.340;4.962;2023-01-27T03:39:25;102697.47;;;4.39;79.07
36222;BME280;22266;52.340;4.962;2023-01-27T03:42:10;102702.28;;;4.34;78.27
36222;BME280;22266;52.340;4.962;2023-01-27T03:44:56;102714.47;;;4.26;76.95
36222;BME280;22266;52.340;4.962;2023-01-27T03:47:41;102704.31;;;4.18;75.84
36222;BME280;22266;52.340;4.962;2023-01-27T03:50:08;102714.22;;;4.16;75.53
36222;BME280;22266;52.340;4.962;2023-01-27T03:52:36;102706.34;;;4.14;75.34
36222;BME280;22266;52.340;4.962;2023-01-27T03:55:03;102713.81;;;4.22;75.31
36222;BME280;22266;52.340;4.962;2023-01-27T03:57:30;102722.34;;;4.27;74.50
36222;BME280;22266;52.340;4.962;2023-01-27T03:59:56;102727.34;;;4.32;74.39
36222;BME280;22266;52.340;4.962;2023-01-27T04:02:22;102720.84;;;4.36;74.96
36222;BME280;22266;52.340;4.962;2023-01-27T04:05:08;102736.50;;;4.40;74.72
36222;BME280;22266;52.340;4.962;2023-01-27T04:07:52;102726.28;;;4.34;74.89
36222;BME280;22266;52.340;4.962;2023-01-27T04:10:19;102735.22;;;4.33;74.73
36222;BME280;22266;52.340;4.962;2023-01-27T04:12:47;102742.03;;;4.37;74.53
36222;BME280;22266;52.340;4.962;2023-01-27T04:15:13;102734.81;;;4.39;74.67
36222;BME280;22266;52.340;4.962;2023-01-27T04:17:44;102738.78;;;4.34;74.46
36222;BME280;22266;52.340;4.962;2023-01-27T04:20:10;102739.81;;;4.31;74.65
36222;BME280;22266;52.340;4.962;2023-01-27T04:22:37;102743.88;;;4.37;74.66
36222;BME280;22266;52.340;4.962;2023-01-27T04:25:04;102741.53;;;4.32;73.93
36222;BME280;22266;52.340;4.962;2023-01-27T04:27:31;102744.09;;;4.34;74.31
36222;BME280;22266;52.340;4.962;2023-01-27T04:29:57;102742.28;;;4.34;74.08
36222;BME280;22266;52.340;4.962;2023-01-27T04:32:24;102738.31;;;4.40;73.75
36222;BME280;22266;52.340;4.962;2023-01-27T04:34:51;102741.31;;;4.48;73.42
36222;BME280;22266;52.340;4.962;2023-01-27T04:37:17;102740.13;;;4.52;73.67
36222;BME280;22266;52.340;4.962;2023-01-27T04:39:44;102741.75;;;4.55;73.76
36222;BME280;22266;52.340;4.962;2023-01-27T04:42:11;102740.66;;;4.57;73.29
36222;BME280;22266;52.340;4.962;2023-01-27T04:44:38;102741.75;;;4.55;72.88
36222;BME280;22266;52.340;4.962;2023-01-27T04:47:04;102734.91;;;4.51;73.74
36222;BME280;22266;52.340;4.962;2023-01-27T04:49:31;102741.19;;;4.50;74.02
36222;BME280;22266;52.340;4.962;2023-01-27T04:51:57;102745.16;;;4.44;73.56
36222;BME280;22266;52.340;4.962;2023-01-27T04:54:24;102745.03;;;4.45;73.93
36222;BME280;22266;52.340;4.962;2023-01-27T04:56:58;102751.25;;;4.46;73.89
36222;BME280;22266;52.340;4.962;2023-01-27T04:59:25;102752.41;;;4.42;73.66
36222;BME280;22266;52.340;4.962;2023-01-27T05:01:52;102758.59;;;4.42;73.52
36222;BME280;22266;52.340;4.962;2023-01-27T05:04:18;102759.53;;;4.41;72.98
36222;BME280;22266;52.340;4.962;2023-01-27T05:06:45;102755.38;;;4.37;72.93
36222;BME280;22266;52.340;4.962;2023-01-27T05:09:11;102764.03;;;4.41;72.81
36222;BME280;22266;52.340;4.962;2023-01-27T05:11:38;102756.34;;;4.49;72.82
36222;BME280;22266;52.340;4.962;2023-01-27T05:14:04;102760.75;;;4.50;72.21
36222;BME280;22266;52.340;4.962;2023-01-27T05:16:31;102763.94;;;4.42;71.46
36222;BME280;22266;52.340;4.962;2023-01-27T05:18:57;102774.69;;;4.41;71.20
36222;BME280;22266;52.340;4.962;2023-01-27T05:21:25;102771.38;;;4.37;71.17
36222;BME280;22266;52.340;4.962;2023-01-27T05:23:56;102772.53;;;4.33;71.52
36222;BME280;22266;52.340;4.962;2023-01-27T05:26:25;102772.47;;;4.35;70.75
36222;BME280;22266;52.340;4.962;2023-01-27T05:28:53;102765.53;;;4.32;70.81
36222;BME280;22266;52.340;4.962;2023-01-27T05:31:24;102781.19;;;4.37;70.62
36222;BME280;22266;52.340;4.962;2023-01-27T05:33:52;102765.00;;;4.40;70.26
36222;BME280;22266;52.340;4.962;2023-01-27T05:36:21;102771.09;;;4.42;70.82
36222;BME280;22266;52.340;4.962;2023-01-27T05:38:47;102773.44;;;4.46;71.28
36222;BME280;22266;52.340;4.962;2023-01-27T05:41:16;102782.16;;;4.49;71.67
36222;BME280;22266;52.340;4.962;2023-01-27T05:43:44;102788.03;;;4.41;71.85
36222;BME280;22266;52.340;4.962;2023-01-27T05:46:14;102786.00;;;4.44;71.73
36222;BME280;22266;52.340;4.962;2023-01-27T05:48:43;102787.69;;;4.45;71.99
36222;BME280;22266;52.340;4.962;2023-01-27T05:51:11;102798.03;;;4.37;70.74
36222;BME280;22266;52.340;4.962;2023-01-27T05:53:40;102799.00;;;4.36;70.91
36222;BME280;22266;52.340;4.962;2023-01-27T05:56:08;102791.00;;;4.36;69.93
36222;BME280;22266;52.340;4.962;2023-01-27T05:58:36;102800.81;;;4.36;70.06
36222;BME280;22266;52.340;4.962;2023-01-27T06:01:17;102800.63;;;4.39;69.04
36222;BME280;22266;52.340;4.962;2023-01-27T06:03:45;102792.63;;;4.39;68.58
36222;BME280;22266;52.340;4.962;2023-01-27T06:06:12;102789.09;;;4.38;68.80
36222;BME280;22266;52.340;4.962;2023-01-27T06:08:39;102786.31;;;4.40;69.27
36222;BME280;22266;52.340;4.962;2023-01-27T06:11:06;102795.81;;;4.44;69.90
36222;BME280;22266;52.340;4.962;2023-01-27T06:13:34;102793.25;;;4.42;70.97
36222;BME280;22266;52.340;4.962;2023-01-27T06:16:02;102794.44;;;4.38;70.60
36222;BME280;22266;52.340;4.962;2023-01-27T06:18:29;102795.50;;;4.36;71.61
36222;BME280;22266;52.340;4.962;2023-01-27T06:20:59;102791.22;;;4.33;71.40
36222;BME280;22266;52.340;4.962;2023-01-27T06:23:26;102802.31;;;4.27;70.68
36222;BME280;22266;52.340;4.962;2023-01-27T06:25:54;102809.97;;;4.19;70.08
36222;BME280;22266;52.340;4.962;2023-01-27T06:28:21;102813.03;;;4.13;69.26
36222;BME280;22266;52.340;4.962;2023-01-27T06:30:55;102818.69;;;4.08;69.15
36222;BME280;22266;52.340;4.962;2023-01-27T06:33:22;102817.19;;;4.04;67.42
36222;BME280;22266;52.340;4.962;2023-01-27T06:35:49;102810.34;;;4.00;67.96
36222;BME280;22266;52.340;4.962;2023-01-27T06:38:15;102802.28;;;4.02;67.33
36222;BME280;22266;52.340;4.962;2023-01-27T06:40:41;102811.00;;;4.04;67.23
36222;BME280;22266;52.340;4.962;2023-01-27T06:43:12;102803.97;;;4.03;67.25
36222;BME280;22266;52.340;4.962;2023-01-27T06:45:39;102804.44;;;4.09;67.78
36222;BME280;22266;52.340;4.962;2023-01-27T06:48:06;102796.19;;;4.12;67.97
36222;BME280;22266;52.340;4.962;2023-01-27T06:50:35;102799.53;;;4.16;68.25
36222;BME280;22266;52.340;4.962;2023-01-27T06:53:05;102799.75;;;4.26;68.26
36222;BME280;22266;52.340;4.962;2023-01-27T06:55:33;102798.69;;;4.28;68.47
36222;BME280;22266;52.340;4.962;2023-01-27T06:58:00;102807.53;;;4.29;68.26
36222;BME280;22266;52.340;4.962;2023-01-27T07:00:27;102810.63;;;4.22;68.80
36222;BME280;22266;52.340;4.962;2023-01-27T07:02:54;102810.31;;;4.27;69.08
36222;BME280;22266;52.340;4.962;2023-01-27T07:05:21;102800.81;;;4.23;69.30
36222;BME280;22266;52.340;4.962;2023-01-27T07:07:47;102802.31;;;4.27;69.47
36222;BME280;22266;52.340;4.962;2023-01-27T07:10:14;102809.47;;;4.27;69.80
36222;BME280;22266;52.340;4.962;2023-01-27T07:12:41;102815.44;;;4.30;70.37
36222;BME280;22266;52.340;4.962;2023-01-27T07:15:09;102815.97;;;4.35;70.50
36222;BME280;22266;52.340;4.962;2023-01-27T07:17:35;102822.81;;;4.39;71.09
36222;BME280;22266;52.340;4.962;2023-01-27T07:20:03;102833.34;;;4.41;71.36
36222;BME280;22266;52.340;4.962;2023-01-27T07:22:30;102843.16;;;4.40;71.80
36222;BME280;22266;52.340;4.962;2023-01-27T07:24:56;102842.44;;;4.38;71.61
36222;BME280;22266;52.340;4.962;2023-01-27T07:27:24;102842.84;;;4.32;71.47
36222;BME280;22266;52.340;4.962;2023-01-27T07:29:50;102840.47;;;4.28;70.93
36222;BME280;22266;52.340;4.962;2023-01-27T07:32:17;102848.25;;;4.18;71.21
36222;BME280;22266;52.340;4.962;2023-01-27T07:34:43;102842.59;;;4.10;70.19
36222;BME280;22266;52.340;4.962;2023-01-27T07:37:10;102855.91;;;4.10;70.05
36222;BME280;22266;52.340;4.962;2023-01-27T07:39:37;102853.75;;;4.02;69.84
36222;BME280;22266;52.340;4.962;2023-01-27T07:42:04;102853.22;;;3.97;69.68
36222;BME280;22266;52.340;4.962;2023-01-27T07:44:31;102863.00;;;3.96;69.69
36222;BME280;22266;52.340;4.962;2023-01-27T07:46:58;102857.13;;;3.91;69.47
36222;BME280;22266;52.340;4.962;2023-01-27T07:49:25;102861.41;;;3.94;69.62
36222;BME280;22266;52.340;4.962;2023-01-27T07:51:53;102857.78;;;3.95;69.04
36222;BME280;22266;52.340;4.962;2023-01-27T07:54:19;102864.28;;;3.91;68.25
36222;BME280;22266;52.340;4.962;2023-01-27T07:56:45;102854.75;;;3.87;68.42
36222;BME280;22266;52.340;4.962;2023-01-27T07:59:12;102853.06;;;3.86;68.79
36222;BME280;22266;52.340;4.962;2023-01-27T08:01:38;102857.44;;;3.87;68.54
36222;BME280;22266;52.340;4.962;2023-01-27T08:04:07;102852.94;;;3.87;68.47
36222;BME280;22266;52.340;4.962;2023-01-27T08:06:33;102862.66;;;3.88;68.72
36222;BME280;22266;52.340;4.962;2023-01-27T08:09:02;102861.50;;;3.92;68.17
36222;BME280;22266;52.340;4.962;2023-01-27T08:11:28;102864.91;;;3.94;68.54
36222;BME280;22266;52.340;4.962;2023-01-27T08:13:55;102870.06;;;3.97;68.58
36222;BME280;22266;52.340;4.962;2023-01-27T08:16:21;102865.13;;;3.91;69.09
36222;BME280;22266;52.340;4.962;2023-01-27T08:18:48;102866.81;;;3.92;69.10
36222;BME280;22266;52.340;4.962;2023-01-27T08:21:14;102866.94;;;3.91;68.25
36222;BME280;22266;52.340;4.962;2023-01-27T08:23:41;102869.91;;;3.86;68.25
36222;BME280;22266;52.340;4.962;2023-01-27T08:26:07;102872.25;;;3.91;67.88
36222;BME280;22266;52.340;4.962;2023-01-27T08:28:36;102870.38;;;3.93;68.14
36222;BME280;22266;52.340;4.962;2023-01-27T08:31:06;102877.28;;;3.95;67.79
36222;BME280;22266;52.340;4.962;2023-01-27T08:33:33;102881.75;;;3.95;68.04
36222;BME280;22266;52.340;4.962;2023-01-27T08:36:05;102885.28;;;3.95;67.52
36222;BME280;22266;52.340;4.962;2023-01-27T08:38:32;102878.13;;;3.96;68.09
36222;BME280;22266;52.340;4.962;2023-01-27T08:41:15;102883.91;;;4.03;68.03
36222;BME280;22266;52.340;4.962;2023-01-27T08:43:42;102881.06;;;4.06;68.75
36222;BME280;22266;52.340;4.962;2023-01-27T08:46:09;102887.84;;;4.50;71.79
36222;BME280;22266;52.340;4.962;2023-01-27T08:48:36;102880.75;;;4.50;69.03
36222;BME280;22266;52.340;4.962;2023-01-27T08:51:04;102882.97;;;4.43;68.76
36222;BME280;22266;52.340;4.962;2023-01-27T08:53:32;102881.78;;;4.35;68.75
36222;BME280;22266;52.340;4.962;2023-01-27T08:56:06;102874.81;;;4.32;68.43
36222;BME280;22266;52.340;4.962;2023-01-27T08:58:33;102881.84;;;4.33;68.57
36222;BME280;22266;52.340;4.962;2023-01-27T09:01:00;102881.84;;;4.33;68.09
36222;BME280;22266;52.340;4.962;2023-01-27T09:03:29;102876.31;;;4.24;67.57
36222;BME280;22266;52.340;4.962;2023-01-27T09:05:55;102888.47;;;4.28;68.22
36222;BME280;22266;52.340;4.962;2023-01-27T09:08:22;102884.31;;;4.36;68.31
36222;BME280;22266;52.340;4.962;2023-01-27T09:10:48;102884.56;;;4.46;68.28
36222;BME280;22266;52.340;4.962;2023-01-27T09:13:15;102883.09;;;4.55;67.93
36222;BME280;22266;52.340;4.962;2023-01-27T09:15:42;102883.81;;;4.57;67.86
36222;BME280;22266;52.340;4.962;2023-01-27T09:18:09;102891.63;;;4.60;67.70
36222;BME280;22266;52.340;4.962;2023-01-27T09:20:36;102900.06;;;4.79;70.53
36222;BME280;22266;52.340;4.962;2023-01-27T09:23:03;102903.72;;;4.78;68.07
36222;BME280;22266;52.340;4.962;2023-01-27T09:25:30;102903.28;;;4.71;68.57
36222;BME280;22266;52.340;4.962;2023-01-27T09:27:58;102903.47;;;4.68;67.74
36222;BME280;22266;52.340;4.962;2023-01-27T09:30:26;102905.16;;;4.57;68.54
36222;BME280;22266;52.340;4.962;2023-01-27T09:32:57;102907.63;;;4.60;67.67
36222;BME280;22266;52.340;4.962;2023-01-27T09:35:24;102904.97;;;4.60;68.57
36222;BME280;22266;52.340;4.962;2023-01-27T09:37:57;102900.03;;;4.54;68.35
36222;BME280;22266;52.340;4.962;2023-01-27T09:40:33;102895.78;;;4.51;69.25
36222;BME280;22266;52.340;4.962;2023-01-27T09:46:36;102912.00;;;4.61;68.89
36222;BME280;22266;52.340;4.962;2023-01-27T09:57:17;102896.44;;;4.55;68.92
36222;BME280;22266;52.340;4.962;2023-01-27T10:16:22;102906.78;;;4.85;68.51
36222;BME280;22266;52.340;4.962;2023-01-27T10:24:36;102908.59;;;5.10;69.15
36222;BME280;22266;52.340;4.962;2023-01-27T10:27:20;102910.50;;;5.33;68.98
36222;BME280;22266;52.340;4.962;2023-01-27T10:30:12;102914.66;;;5.37;66.58
36222;BME280;22266;52.340;4.962;2023-01-27T10:32:44;102905.94;;;5.35;66.29
36222;BME280;22266;52.340;4.962;2023-01-27T10:35:17;102904.19;;;5.34;67.23
36222;BME280;22266;52.340;4.962;2023-01-27T10:40:35;102902.50;;;5.33;67.49
36222;BME280;22266;52.340;4.962;2023-01-27T10:43:24;102904.84;;;5.38;67.18
36222;BME280;22266;52.340;4.962;2023-01-27T10:45:59;102909.31;;;5.37;67.32
36222;BME280;22266;52.340;4.962;2023-01-27T10:48:51;102909.88;;;5.30;67.44
36222;BME280;22266;52.340;4.962;2023-01-27T10:51:32;102902.94;;;5.27;66.91
36222;BME280;22266;52.340;4.962;2023-01-27T10:54:08;102903.59;;;5.31;66.91
36222;BME280;22266;52.340;4.962;2023-01-27T10:56:48;102901.97;;;5.28;67.11
36222;BME280;22266;52.340;4.962;2023-01-27T10:59:24;102898.00;;;5.34;67.54
36222;BME280;22266;52.340;4.962;2023-01-27T11:01:55;102892.75;;;5.45;67.42
36222;BME280;22266;52.340;4.962;2023-01-27T11:04:33;102900.34;;;5.51;67.14
36222;BME280;22266;52.340;4.962;2023-01-27T11:07:04;102892.22;;;5.53;66.83
36222;BME280;22266;52.340;4.962;2023-01-27T11:09:35;102888.06;;;5.49;66.57
36222;BME280;22266;52.340;4.962;2023-01-27T11:12:12;102895.84;;;5.52;66.94
36222;BME280;22266;52.340;4.962;2023-01-27T11:14:48;102897.75;;;5.50;66.96
36222;BME280;22266;52.340;4.962;2023-01-27T11:17:33;102892.63;;;5.46;66.70
36222;BME280;22266;52.340;4.962;2023-01-27T11:28:27;102895.25;;;5.35;65.78
36222;BME280;22266;52.340;4.962;2023-01-27T11:31:19;102900.34;;;5.38;65.83
36222;BME280;22266;52.340;4.962;2023-01-27T11:33:49;102909.44;;;5.36;66.57
36222;BME280;22266;52.340;4.962;2023-01-27T11:36:20;102901.97;;;5.28;66.04
36222;BME280;22266;52.340;4.962;2023-01-27T11:38:46;102898.13;;;5.32;66.66
36222;BME280;22266;52.340;4.962;2023-01-27T11:41:13;102899.94;;;5.32;66.61
36222;BME280;22266;52.340;4.962;2023-01-27T11:43:40;102904.19;;;5.34;67.30
36222;BME280;22266;52.340;4.962;2023-01-27T11:46:12;102899.50;;;5.38;67.13
36222;BME280;22266;52.340;4.962;2023-01-27T11:48:49;102890.75;;;5.36;66.78
36222;BME280;22266;52.340;4.962;2023-01-27T11:51:19;102894.16;;;5.38;67.62
36222;BME280;22266;52.340;4.962;2023-01-27T11:54:02;102889.56;;;5.40;67.82
36222;BME280;22266;52.340;4.962;2023-01-27T11:56:32;102893.31;;;5.37;67.91
36222;BME280;22266;52.340;4.962;2023-01-27T11:59:09;102882.94;;;5.33;67.30
36222;BME280;22266;52.340;4.962;2023-01-27T12:01:52;102879.66;;;5.29;68.64
36222;BME280;22266;52.340;4.962;2023-01-27T12:07:33;102873.91;;;5.10;68.38
36222;BME280;22266;52.340;4.962;2023-01-27T12:10:00;102878.19;;;5.12;68.62
36222;BME280;22266;52.340;4.962;2023-01-27T12:12:26;102860.34;;;5.13;68.87
36222;BME280;22266;52.340;4.962;2023-01-27T12:14:55;102865.16;;;5.08;68.42
36222;BME280;22266;52.340;4.962;2023-01-27T12:20:02;102864.63;;;5.15;68.50
36222;BME280;22266;52.340;4.962;2023-01-27T12:22:44;102856.63;;;5.15;68.88
36222;BME280;22266;52.340;4.962;2023-01-27T12:25:19;102864.84;;;5.12;69.16
36222;BME280;22266;52.340;4.962;2023-01-27T12:27:53;102865.56;;;5.14;69.47
36222;BME280;22266;52.340;4.962;2023-01-27T12:30:25;102869.19;;;5.13;69.25
36222;BME280;22266;52.340;4.962;2023-01-27T12:32:53;102863.47;;;5.07;69.96
36222;BME280;22266;52.340;4.962;2023-01-27T12:35:32;102868.47;;;5.11;70.68
36222;BME280;22266;52.340;4.962;2023-01-27T12:38:13;102863.97;;;5.12;69.61
36222;BME280;22266;52.340;4.962;2023-01-27T12:40:44;102869.13;;;5.15;70.77
36222;BME280;22266;52.340;4.962;2023-01-27T12:43:14;102866.19;;;5.18;70.20
36222;BME280;22266;52.340;4.962;2023-01-27T12:45:43;102857.34;;;5.17;70.49
36222;BME280;22266;52.340;4.962;2023-01-27T12:50:41;102855.22;;;5.10;69.48
36222;BME280;22266;52.340;4.962;2023-01-27T12:55:55;102860.69;;;4.95;68.96
36222;BME280;22266;52.340;4.962;2023-01-27T12:58:32;102856.94;;;4.85;68.42
36222;BME280;22266;52.340;4.962;2023-01-27T13:01:03;102850.66;;;4.86;69.26
36222;BME280;22266;52.340;4.962;2023-01-27T13:03:31;102856.53;;;4.91;69.04
36222;BME280;22266;52.340;4.962;2023-01-27T13:06:02;102854.38;;;4.96;68.68
36222;BME280;22266;52.340;4.962;2023-01-27T13:08:31;102856.09;;;4.97;69.25
36222;BME280;22266;52.340;4.962;2023-01-27T13:11:01;102856.09;;;4.97;69.46
36222;BME280;22266;52.340;4.962;2023-01-27T13:13:29;102853.72;;;5.06;70.02
36222;BME280;22266;52.340;4.962;2023-01-27T13:16:05;102855.75;;;5.15;69.54
36222;BME280;22266;52.340;4.962;2023-01-27T13:18:35;102849.44;;;5.16;70.06
36222;BME280;22266;52.340;4.962;2023-01-27T13:21:35;102861.41;;;5.10;69.47
36222;BME280;22266;52.340;4.962;2023-01-27T13:24:13;102857.56;;;5.02;69.41
36222;BME280;22266;52.340;4.962;2023-01-27T13:26:40;102858.66;;;4.99;69.25
36222;BME280;22266;52.340;4.962;2023-01-27T13:34:38;102857.56;;;5.02;68.38
36222;BME280;22266;52.340;4.962;2023-01-27T13:37:18;102853.41;;;4.97;67.71
36222;BME280;22266;52.340;4.962;2023-01-27T13:40:11;102865.28;;;4.93;67.45
36222;BME280;22266;52.340;4.962;2023-01-27T13:42:45;102861.34;;;4.86;66.19
36222;BME280;22266;52.340;4.962;2023-01-27T13:48:02;102860.06;;;4.79;66.88
36222;BME280;22266;52.340;4.962;2023-01-27T13:50:45;102873.28;;;4.81;67.61
36222;BME280;22266;52.340;4.962;2023-01-27T13:53:16;102871.59;;;4.80;67.38
36222;BME280;22266;52.340;4.962;2023-01-27T14:04:21;102876.78;;;4.81;67.56
36222;BME280;22266;52.340;4.962;2023-01-27T14:15:13;102877.88;;;4.66;67.44
36222;BME280;22266;52.340;4.962;2023-01-27T14:18:07;102875.75;;;4.58;67.92
36222;BME280;22266;52.340;4.962;2023-01-27T14:31:39;102884.25;;;4.51;69.10
36222;BME280;22266;52.340;4.962;2023-01-27T14:34:34;102875.28;;;4.52;69.54
36222;BME280;22266;52.340;4.962;2023-01-27T14:37:19;102876.59;;;4.59;68.90
36222;BME280;22266;52.340;4.962;2023-01-27T14:40:12;102880.09;;;4.59;68.46
36222;BME280;22266;52.340;4.962;2023-01-27T14:45:37;102885.75;;;4.55;68.59
36222;BME280;22266;52.340;4.962;2023-01-27T14:54:04;102883.41;;;4.63;69.26
36222;BME280;22266;52.340;4.962;2023-01-27T14:56:48;102888.56;;;4.66;69.98
36222;BME280;22266;52.340;4.962;2023-01-27T15:02:39;102894.22;;;4.74;69.56
36222;BME280;22266;52.340;4.962;2023-01-27T15:08:02;102899.84;;;4.69;70.06